createdAt,value
2023-03-29T00:01:40.053Z,17.51
2023-03-29T00:04:06.961Z,17.56
2023-03-29T00:06:34.241Z,17.34
2023-03-29T00:09:01.342Z,17.52
2023-03-29T00:11:28.533Z,17.37
2023-03-29T00:13:55.543Z,17.27
2023-03-29T00:16:24.115Z,17.47
2023-03-29T00:18:51.515Z,17.42
2023-03-29T00:21:18.422Z,17.59
2023-03-29T00:23:45.224Z,17.52
2023-03-29T00:26:12.315Z,17.50
2023-03-29T00:28:39.150Z,17.51
2023-03-29T00:31:08.567Z,17.42
2023-03-29T00:33:37.084Z,17.58
2023-03-29T00:36:04.923Z,17.64
2023-03-29T00:38:32.267Z,17.60
2023-03-29T00:40:59.723Z,17.57
2023-03-29T00:43:27.424Z,17.54
2023-03-29T00:45:54.374Z,17.56
2023-03-29T00:48:25.109Z,17.44
2023-03-29T00:50:57.624Z,17.48
2023-03-29T00:53:28.242Z,17.58
2023-03-29T00:56:01.376Z,17.56
2023-03-29T00:58:33.904Z,17.55
2023-03-29T01:01:05.156Z,17.52
2023-03-29T01:03:36.901Z,17.54
2023-03-29T01:06:08.301Z,17.55
2023-03-29T01:08:40.407Z,17.48
2023-03-29T01:11:12.488Z,17.38
2023-03-29T01:13:44.175Z,17.37
2023-03-29T01:16:13.938Z,17.26
2023-03-29T01:18:40.920Z,17.28
2023-03-29T01:21:20.928Z,17.25
2023-03-29T01:24:03.845Z,17.09
2023-03-29T01:26:40.510Z,17.06
2023-03-29T01:29:14.162Z,17.02
2023-03-29T01:31:45.818Z,17.09
2023-03-29T01:34:19.858Z,16.99
2023-03-29T01:36:52.154Z,16.90
2023-03-29T01:39:19.016Z,16.76
2023-03-29T01:41:52.598Z,16.67
2023-03-29T01:44:29.648Z,16.60
2023-03-29T01:47:06.509Z,16.49
2023-03-29T01:49:38.446Z,16.37
2023-03-29T01:52:13.708Z,16.35
2023-03-29T01:54:43.996Z,16.23
2023-03-29T01:57:12.180Z,16.23
2023-03-29T01:59:44.272Z,16.09
2023-03-29T02:02:15.993Z,16.02
2023-03-29T02:04:47.660Z,16.03
2023-03-29T02:07:17.507Z,16.19
2023-03-29T02:09:46.976Z,16.17
2023-03-29T02:12:16.982Z,16.07
2023-03-29T02:14:45.851Z,16.12
2023-03-29T02:17:16.578Z,16.13
2023-03-29T02:19:44.648Z,16.23
2023-03-29T02:22:13.485Z,16.03
2023-03-29T02:24:42.205Z,16.01
2023-03-29T02:27:09.310Z,15.96
2023-03-29T02:29:36.482Z,16.01
2023-03-29T02:32:13.033Z,16.18
2023-03-29T02:34:46.701Z,16.30
2023-03-29T02:37:18.014Z,16.31
2023-03-29T02:39:48.314Z,16.47
2023-03-29T02:42:16.890Z,16.51
2023-03-29T02:44:46.687Z,16.48
2023-03-29T02:47:19.780Z,16.86
2023-03-29T02:49:47.009Z,16.99
2023-03-29T02:52:17.576Z,17.12
2023-03-29T02:54:48.717Z,16.94
2023-03-29T02:57:15.665Z,16.97
2023-03-29T02:59:42.755Z,16.80
2023-03-29T03:02:10.109Z,16.75
2023-03-29T03:04:38.489Z,16.60
2023-03-29T03:07:05.342Z,16.62
2023-03-29T03:09:32.703Z,16.88
2023-03-29T03:11:59.572Z,16.91
2023-03-29T03:14:26.249Z,16.95
2023-03-29T03:16:53.076Z,17.15
2023-03-29T03:19:19.967Z,17.09
2023-03-29T03:21:48.091Z,16.97
2023-03-29T03:24:14.953Z,17.02
2023-03-29T03:26:41.984Z,16.99
2023-03-29T03:29:09.085Z,17.25
2023-03-29T03:31:35.827Z,17.25
2023-03-29T03:34:03.072Z,17.17
2023-03-29T03:36:30.242Z,17.02
2023-03-29T03:38:58.604Z,17.01
2023-03-29T03:41:25.743Z,17.39
2023-03-29T03:43:52.774Z,17.37
2023-03-29T03:46:19.967Z,17.43
2023-03-29T03:48:47.329Z,17.52
2023-03-29T03:51:14.315Z,17.30
2023-03-29T03:53:41.439Z,17.48
2023-03-29T03:56:10.524Z,17.35
2023-03-29T03:58:37.899Z,17.38
2023-03-29T04:01:06.083Z,17.26
2023-03-29T04:03:33.000Z,17.31
2023-03-29T04:06:01.482Z,17.11
2023-03-29T04:08:28.328Z,17.13
2023-03-29T04:10:56.972Z,17.28
2023-03-29T04:13:26.046Z,17.30
2023-03-29T04:15:53.237Z,17.23
2023-03-29T04:18:20.974Z,17.08
2023-03-29T04:20:48.393Z,17.10
2023-03-29T04:23:15.844Z,17.16
2023-03-29T04:25:42.669Z,17.12
2023-03-29T04:28:10.022Z,17.33
2023-03-29T04:30:38.781Z,17.33
2023-03-29T04:33:05.597Z,17.41
2023-03-29T04:35:32.532Z,17.31
2023-03-29T04:37:59.452Z,17.24
2023-03-29T04:40:26.403Z,17.51
2023-03-29T04:42:53.308Z,17.51
2023-03-29T04:45:20.037Z,17.50
2023-03-29T04:47:48.207Z,17.30
2023-03-29T04:50:15.090Z,17.60
2023-03-29T04:52:42.139Z,17.65
2023-03-29T04:55:09.660Z,17.69
2023-03-29T04:57:36.799Z,17.98
2023-03-29T05:00:04.425Z,17.99
2023-03-29T05:02:31.546Z,17.79
2023-03-29T05:04:59.879Z,17.65
2023-03-29T05:07:26.923Z,17.79
2023-03-29T05:09:54.007Z,17.87
2023-03-29T05:12:21.027Z,17.86
2023-03-29T05:14:48.107Z,17.99
2023-03-29T05:17:14.902Z,17.76
2023-03-29T05:19:41.701Z,17.90
2023-03-29T05:22:10.309Z,17.84
2023-03-29T05:24:37.110Z,17.90
2023-03-29T05:27:04.363Z,18.00
2023-03-29T05:29:31.478Z,17.74
2023-03-29T05:31:58.474Z,17.84
2023-03-29T05:34:25.424Z,18.03
2023-03-29T05:36:52.294Z,18.13
2023-03-29T05:39:20.724Z,17.98
2023-03-29T05:41:47.513Z,18.00
2023-03-29T05:44:17.680Z,17.89
2023-03-29T05:46:44.792Z,17.77
2023-03-29T05:49:11.948Z,17.89
2023-03-29T05:51:38.774Z,18.02
2023-03-29T05:54:05.886Z,18.30
2023-03-29T05:56:34.057Z,18.18
2023-03-29T05:59:00.881Z,17.95
2023-03-29T06:01:27.769Z,18.15
2023-03-29T06:03:54.973Z,18.12
2023-03-29T06:06:22.104Z,18.26
2023-03-29T06:08:49.002Z,18.03
2023-03-29T06:11:19.452Z,18.11
2023-03-29T06:13:47.691Z,18.29
2023-03-29T06:16:14.516Z,18.42
2023-03-29T06:18:41.575Z,18.35
2023-03-29T06:21:08.669Z,18.51
2023-03-29T06:23:35.838Z,18.47
2023-03-29T06:26:02.749Z,18.67
2023-03-29T06:28:29.635Z,18.65
2023-03-29T06:30:58.321Z,18.71
2023-03-29T06:33:25.392Z,18.67
2023-03-29T06:35:52.436Z,18.75
2023-03-29T06:38:25.293Z,18.73
2023-03-29T06:40:52.357Z,18.63
2023-03-29T06:43:19.063Z,18.59
2023-03-29T06:45:46.294Z,18.88
2023-03-29T06:48:17.787Z,18.68
2023-03-29T06:50:44.443Z,18.45
2023-03-29T06:53:11.106Z,18.79
2023-03-29T06:55:37.887Z,18.90
2023-03-29T06:58:04.616Z,18.47
2023-03-29T07:00:31.512Z,19.11
2023-03-29T07:02:59.122Z,19.24
2023-03-29T07:05:27.901Z,19.63
2023-03-29T07:07:54.902Z,19.68
2023-03-29T07:10:23.767Z,19.87
2023-03-29T07:12:50.566Z,20.40
2023-03-29T07:15:17.942Z,20.56
2023-03-29T07:17:44.871Z,20.70
2023-03-29T07:20:12.414Z,20.50
2023-03-29T07:22:41.042Z,20.36
2023-03-29T07:25:08.913Z,19.72
2023-03-29T07:27:35.809Z,19.76
2023-03-29T07:30:03.862Z,19.79
2023-03-29T07:32:31.827Z,19.79
2023-03-29T07:34:58.711Z,19.71
2023-03-29T07:37:25.818Z,19.56
2023-03-29T07:39:54.054Z,19.73
2023-03-29T07:42:20.721Z,19.60
2023-03-29T07:44:47.516Z,19.55
2023-03-29T07:47:14.554Z,19.54
2023-03-29T07:49:41.815Z,19.75
2023-03-29T07:52:08.912Z,19.94
2023-03-29T07:54:36.183Z,19.92
2023-03-29T07:57:04.616Z,20.11
2023-03-29T07:59:31.746Z,20.01
2023-03-29T08:01:58.503Z,20.07
2023-03-29T08:04:25.440Z,20.18
2023-03-29T08:06:52.188Z,20.43
2023-03-29T08:09:19.137Z,19.95
2023-03-29T08:11:46.947Z,20.27
2023-03-29T08:14:15.525Z,20.36
2023-03-29T08:16:42.756Z,20.29
2023-03-29T08:19:11.918Z,20.07
2023-03-29T08:21:39.043Z,19.62
2023-03-29T08:24:06.907Z,19.99
2023-03-29T08:26:33.996Z,19.72
2023-03-29T08:29:01.162Z,19.73
2023-03-29T08:31:29.493Z,19.97
2023-03-29T08:33:56.306Z,19.98
2023-03-29T08:36:23.402Z,20.24
2023-03-29T08:38:50.185Z,19.62
2023-03-29T08:41:35.574Z,19.65
2023-03-29T08:44:23.592Z,19.88
2023-03-29T08:46:59.060Z,19.67
2023-03-29T08:49:27.059Z,19.84
2023-03-29T08:51:58.663Z,19.76
2023-03-29T08:54:28.033Z,19.45
2023-03-29T08:57:01.638Z,19.73
2023-03-29T08:59:31.768Z,19.90
2023-03-29T09:02:10.010Z,19.91
2023-03-29T09:04:41.252Z,19.74
2023-03-29T09:07:10.139Z,19.86
2023-03-29T09:09:37.883Z,20.41
2023-03-29T09:12:17.624Z,20.42
2023-03-29T09:14:58.879Z,20.48
2023-03-29T09:17:49.720Z,20.55
2023-03-29T09:20:27.185Z,20.65
2023-03-29T09:23:02.671Z,20.53
2023-03-29T09:25:50.975Z,20.54
2023-03-29T09:28:27.950Z,20.52
2023-03-29T09:31:00.215Z,20.78
2023-03-29T09:33:37.422Z,20.72
2023-03-29T09:36:10.572Z,20.37
2023-03-29T09:38:42.038Z,20.16
2023-03-29T09:41:19.891Z,20.53
2023-03-29T09:43:49.804Z,20.48
2023-03-29T09:46:22.763Z,20.51
2023-03-29T09:48:51.793Z,20.47
2023-03-29T09:51:22.964Z,20.63
2023-03-29T09:53:50.133Z,20.58
2023-03-29T09:56:17.529Z,20.53
2023-03-29T09:58:45.618Z,20.26
2023-03-29T10:01:15.270Z,20.48
2023-03-29T10:03:43.146Z,20.31
2023-03-29T10:06:12.435Z,20.06
2023-03-29T10:08:44.784Z,20.40
2023-03-29T10:11:14.839Z,20.39
2023-03-29T10:13:45.936Z,20.21
2023-03-29T10:16:20.107Z,20.10
2023-03-29T10:18:47.024Z,20.46
2023-03-29T10:21:16.535Z,20.17
2023-03-29T10:23:43.999Z,20.17
2023-03-29T10:26:20.962Z,20.32
2023-03-29T10:28:48.028Z,20.29
2023-03-29T10:31:18.678Z,20.24
2023-03-29T10:33:52.888Z,20.13
2023-03-29T10:36:22.265Z,20.19
2023-03-29T10:38:50.815Z,19.89
2023-03-29T10:41:19.981Z,20.14
2023-03-29T10:43:48.435Z,20.27
2023-03-29T10:46:21.868Z,20.19
2023-03-29T10:48:50.595Z,20.29
2023-03-29T10:51:18.628Z,20.19
2023-03-29T10:53:47.270Z,20.37
2023-03-29T10:56:32.487Z,20.34
2023-03-29T10:59:13.843Z,20.49
2023-03-29T11:01:52.063Z,20.27
2023-03-29T11:04:27.551Z,20.55
2023-03-29T11:07:09.786Z,20.34
2023-03-29T11:09:49.408Z,20.54
2023-03-29T11:12:23.119Z,20.33
2023-03-29T11:15:03.526Z,20.58
2023-03-29T11:17:48.560Z,20.57
2023-03-29T11:20:24.599Z,20.31
2023-03-29T11:23:00.241Z,20.19
2023-03-29T11:25:49.623Z,20.47
2023-03-29T11:28:23.866Z,20.62
2023-03-29T11:31:04.030Z,20.71
2023-03-29T11:33:46.993Z,20.75
2023-03-29T11:36:20.326Z,20.50
2023-03-29T11:38:58.218Z,20.40
2023-03-29T11:41:30.596Z,20.52
2023-03-29T11:44:02.614Z,20.51
2023-03-29T11:46:36.553Z,20.65
2023-03-29T11:49:11.061Z,20.70
2023-03-29T11:51:43.299Z,20.86
2023-03-29T11:54:18.498Z,20.82
2023-03-29T11:59:22.986Z,21.29
2023-03-29T12:01:55.380Z,21.41
2023-03-29T12:04:29.178Z,20.78
2023-03-29T12:07:07.170Z,21.13
2023-03-29T12:09:39.113Z,21.25
2023-03-29T12:12:14.074Z,21.57
2023-03-29T12:15:00.746Z,21.65
2023-03-29T12:17:33.320Z,21.85
2023-03-29T12:20:06.586Z,21.88
2023-03-29T12:22:34.129Z,21.87
2023-03-29T12:25:05.004Z,21.79
2023-03-29T12:27:39.357Z,21.86
2023-03-29T12:30:23.747Z,21.87
2023-03-29T12:33:09.035Z,22.18
2023-03-29T12:35:46.465Z,22.47
2023-03-29T12:38:19.631Z,22.27
2023-03-29T12:40:49.713Z,22.67
2023-03-29T12:43:24.632Z,22.49
2023-03-29T12:45:56.247Z,22.91
2023-03-29T12:48:25.925Z,23.30
2023-03-29T12:50:54.392Z,23.39
2023-03-29T12:53:24.514Z,23.47
2023-03-29T12:56:06.801Z,23.58
2023-03-29T12:59:04.818Z,23.88
2023-03-29T13:01:34.093Z,23.75
2023-03-29T13:04:19.762Z,23.24
2023-03-29T13:06:56.876Z,23.33
2023-03-29T13:09:25.850Z,23.51
2023-03-29T13:11:54.653Z,23.21
2023-03-29T13:14:27.990Z,22.55
2023-03-29T13:17:15.608Z,22.84
2023-03-29T13:20:11.501Z,22.84
2023-03-29T13:22:50.578Z,22.70
2023-03-29T13:25:35.140Z,22.50
2023-03-29T13:28:08.951Z,22.50
2023-03-29T13:30:50.211Z,22.15
2023-03-29T13:33:55.571Z,22.50
2023-03-29T13:36:34.243Z,22.55
2023-03-29T13:39:03.913Z,22.70
2023-03-29T13:41:43.444Z,22.99
2023-03-29T13:44:24.809Z,22.89
2023-03-29T13:47:04.346Z,22.46
2023-03-29T13:49:33.562Z,22.75
2023-03-29T13:52:13.700Z,22.46
2023-03-29T13:54:44.536Z,22.46
2023-03-29T13:57:16.785Z,22.81
2023-03-29T13:59:52.470Z,22.63
2023-03-29T14:02:32.593Z,22.63
2023-03-29T14:05:01.731Z,22.86
2023-03-29T14:07:33.655Z,23.21
2023-03-29T14:10:01.444Z,23.31
2023-03-29T14:12:38.854Z,23.41
2023-03-29T14:15:08.338Z,23.21
2023-03-29T14:17:37.626Z,23.42
2023-03-29T14:20:07.043Z,23.87
2023-03-29T14:22:34.090Z,24.06
2023-03-29T14:25:06.136Z,24.01
2023-03-29T14:27:36.240Z,23.99
2023-03-29T14:30:18.997Z,23.75
2023-03-29T14:32:48.777Z,23.71
2023-03-29T14:35:15.800Z,23.66
2023-03-29T14:37:43.178Z,23.22
2023-03-29T14:40:17.008Z,23.01
2023-03-29T14:42:43.753Z,22.48
2023-03-29T14:45:13.703Z,22.36
2023-03-29T14:47:41.485Z,22.16
2023-03-29T14:50:18.516Z,21.93
2023-03-29T14:52:47.909Z,21.66
2023-03-29T14:55:16.814Z,21.96
2023-03-29T14:57:43.862Z,22.07
2023-03-29T15:00:24.839Z,22.07
2023-03-29T15:02:55.764Z,22.05
2023-03-29T15:05:32.738Z,21.91
2023-03-29T15:08:01.391Z,22.08
2023-03-29T15:10:31.698Z,22.36
2023-03-29T15:12:58.945Z,22.41
2023-03-29T15:15:25.897Z,22.57
2023-03-29T15:17:52.961Z,22.28
2023-03-29T15:20:24.721Z,22.02
2023-03-29T15:23:01.478Z,22.15
2023-03-29T15:25:33.331Z,22.04
2023-03-29T15:28:01.675Z,21.85
2023-03-29T15:30:33.361Z,21.87
2023-03-29T15:33:20.191Z,21.54
2023-03-29T15:35:50.600Z,21.63
2023-03-29T15:38:23.370Z,21.92
2023-03-29T15:40:54.571Z,21.76
2023-03-29T15:43:21.730Z,21.71
2023-03-29T15:45:48.527Z,21.89
2023-03-29T15:48:18.289Z,21.71
2023-03-29T15:50:45.430Z,21.49
2023-03-29T15:53:15.556Z,21.84
2023-03-29T15:55:47.561Z,22.06
2023-03-29T15:58:15.834Z,22.14
2023-03-29T16:00:46.655Z,22.12
2023-03-29T16:03:14.915Z,22.13
2023-03-29T16:05:42.841Z,22.14
2023-03-29T16:08:11.167Z,21.97
2023-03-29T16:10:38.053Z,22.06
2023-03-29T16:13:06.764Z,22.08
2023-03-29T16:15:34.426Z,22.10
2023-03-29T16:18:01.328Z,22.09
2023-03-29T16:20:28.239Z,22.23
2023-03-29T16:22:56.022Z,22.22
2023-03-29T16:25:23.477Z,22.17
2023-03-29T16:27:51.548Z,22.13
2023-03-29T16:30:20.454Z,22.16
2023-03-29T16:32:47.126Z,22.03
2023-03-29T16:35:26.955Z,21.99
2023-03-29T16:37:53.785Z,22.08
2023-03-29T16:40:20.888Z,21.71
2023-03-29T16:42:48.117Z,21.98
2023-03-29T16:45:15.819Z,22.31
2023-03-29T16:47:44.805Z,22.21
2023-03-29T16:50:12.640Z,22.28
2023-03-29T16:52:40.709Z,22.66
2023-03-29T16:55:08.977Z,22.68
2023-03-29T16:57:36.110Z,22.77
2023-03-29T17:00:04.099Z,22.82
2023-03-29T17:02:30.960Z,22.87
2023-03-29T17:04:59.288Z,22.87
2023-03-29T17:07:26.004Z,22.83
2023-03-29T17:09:53.013Z,22.75
2023-03-29T17:12:20.099Z,22.82
2023-03-29T17:14:49.481Z,22.82
2023-03-29T17:17:16.284Z,22.89
2023-03-29T17:19:43.278Z,22.61
2023-03-29T17:22:11.712Z,22.80
2023-03-29T17:24:38.759Z,22.72
2023-03-29T17:27:05.648Z,22.65
2023-03-29T17:29:32.819Z,22.77
2023-03-29T17:31:59.878Z,22.77
2023-03-29T17:34:26.579Z,22.75
2023-03-29T17:36:53.332Z,22.63
2023-03-29T17:39:21.558Z,22.63
2023-03-29T17:41:48.335Z,22.54
2023-03-29T17:44:15.252Z,22.55
2023-03-29T17:46:41.957Z,22.51
2023-03-29T17:49:08.761Z,22.47
2023-03-29T17:51:35.642Z,22.53
2023-03-29T17:54:02.808Z,22.46
2023-03-29T17:56:31.433Z,22.35
2023-03-29T17:58:58.336Z,22.32
2023-03-29T18:01:25.658Z,22.22
2023-03-29T18:03:52.553Z,22.03
2023-03-29T18:06:19.455Z,22.04
2023-03-29T18:08:47.072Z,22.16
2023-03-29T18:11:16.003Z,22.22
2023-03-29T18:13:44.619Z,22.17
2023-03-29T18:16:11.927Z,22.19
2023-03-29T18:18:39.063Z,22.18
2023-03-29T18:21:06.413Z,22.22
2023-03-29T18:23:33.357Z,22.23
2023-03-29T18:26:00.810Z,22.14
2023-03-29T18:28:27.961Z,22.09
2023-03-29T18:30:56.339Z,22.15
2023-03-29T18:33:23.902Z,22.08
2023-03-29T18:35:51.157Z,21.86
2023-03-29T18:38:19.255Z,21.82
2023-03-29T18:40:46.886Z,21.79
2023-03-29T18:43:14.247Z,21.80
2023-03-29T18:45:41.633Z,21.77
2023-03-29T18:48:10.176Z,21.73
2023-03-29T18:50:37.715Z,21.72
2023-03-29T18:53:04.977Z,21.69
2023-03-29T18:55:32.129Z,21.61
2023-03-29T18:57:58.935Z,21.62
2023-03-29T19:00:26.149Z,21.54
2023-03-29T19:02:53.167Z,21.58
2023-03-29T19:05:21.630Z,21.52
2023-03-29T19:07:48.448Z,21.59
2023-03-29T19:10:15.204Z,21.55
2023-03-29T19:12:42.036Z,21.75
2023-03-29T19:15:11.206Z,21.51
2023-03-29T19:17:38.104Z,21.68
2023-03-29T19:20:06.176Z,21.73
2023-03-29T19:22:34.610Z,21.54
2023-03-29T19:25:01.366Z,21.57
2023-03-29T19:27:28.775Z,21.40
2023-03-29T19:29:55.482Z,21.46
2023-03-29T19:32:22.187Z,21.20
2023-03-29T19:34:49.002Z,21.48
2023-03-29T19:37:15.952Z,21.29
2023-03-29T19:39:44.207Z,21.42
2023-03-29T19:42:11.445Z,21.34
2023-03-29T19:44:38.237Z,21.36
2023-03-29T19:47:05.392Z,21.43
2023-03-29T19:49:32.214Z,21.31
2023-03-29T19:51:58.986Z,21.37
2023-03-29T19:54:26.337Z,21.01
2023-03-29T19:56:54.730Z,20.91
2023-03-29T19:59:21.510Z,21.16
2023-03-29T20:01:48.399Z,20.96
2023-03-29T20:04:15.269Z,21.06
2023-03-29T20:06:42.199Z,21.12
2023-03-29T20:09:08.977Z,20.88
2023-03-29T20:11:36.104Z,20.84
2023-03-29T20:14:05.136Z,20.67
2023-03-29T20:16:32.328Z,20.61
2023-03-29T20:18:59.213Z,20.57
2023-03-29T20:21:25.888Z,20.53
2023-03-29T20:23:52.678Z,20.55
2023-03-29T20:26:19.783Z,20.41
2023-03-29T20:28:46.861Z,20.19
2023-03-29T20:31:15.037Z,20.20
2023-03-29T20:33:41.878Z,20.15
2023-03-29T20:36:09.211Z,20.05
2023-03-29T20:38:36.102Z,20.11
2023-03-29T20:41:04.027Z,20.06
2023-03-29T20:43:31.559Z,19.98
2023-03-29T20:45:58.658Z,20.01
2023-03-29T20:48:27.188Z,19.88
2023-03-29T20:50:53.988Z,20.02
2023-03-29T20:53:20.870Z,19.90
2023-03-29T20:55:48.142Z,19.90
2023-03-29T20:58:15.316Z,19.93
2023-03-29T21:00:42.051Z,19.87
2023-03-29T21:03:09.055Z,19.79
2023-03-29T21:05:37.591Z,19.76
2023-03-29T21:08:04.687Z,19.82
2023-03-29T21:10:31.831Z,19.75
2023-03-29T21:12:58.970Z,19.55
2023-03-29T21:15:26.428Z,19.74
2023-03-29T21:17:53.561Z,19.79
2023-03-29T21:20:20.552Z,19.76
2023-03-29T21:22:49.598Z,19.84
2023-03-29T21:25:16.712Z,19.87
2023-03-29T21:27:43.551Z,19.84
2023-03-29T21:30:11.131Z,19.68
2023-03-29T21:32:39.730Z,19.83
2023-03-29T21:35:07.681Z,19.80
2023-03-29T21:37:34.666Z,19.72
2023-03-29T21:40:03.894Z,19.60
2023-03-29T21:42:30.744Z,19.66
2023-03-29T21:44:57.444Z,19.64
2023-03-29T21:47:24.769Z,19.75
2023-03-29T21:49:51.602Z,19.80
2023-03-29T21:52:18.722Z,19.80
2023-03-29T21:54:45.550Z,19.70
2023-03-29T21:57:14.289Z,19.76
2023-03-29T21:59:40.990Z,19.72
2023-03-29T22:02:08.163Z,19.73
2023-03-29T22:05:12.636Z,19.84
2023-03-29T22:07:39.475Z,19.83
2023-03-29T22:10:07.212Z,19.75
2023-03-29T22:12:35.702Z,19.85
2023-03-29T22:15:02.876Z,19.77
2023-03-29T22:17:30.038Z,19.51
2023-03-29T22:19:57.160Z,19.67
2023-03-29T22:22:25.481Z,19.74
2023-03-29T22:24:54.764Z,19.54
2023-03-29T22:27:22.146Z,19.62
2023-03-29T22:29:50.834Z,19.54
2023-03-29T22:32:18.059Z,19.69
2023-03-29T22:34:45.325Z,19.69
2023-03-29T22:37:12.128Z,19.69
2023-03-29T22:39:38.967Z,19.63
2023-03-29T22:42:05.934Z,19.56
2023-03-29T22:44:32.758Z,19.54
2023-03-29T22:47:01.247Z,19.50
2023-03-29T22:49:28.372Z,19.63
2023-03-29T22:51:55.162Z,19.59
2023-03-29T22:54:22.035Z,19.41
2023-03-29T22:56:48.936Z,19.45
2023-03-29T22:59:16.127Z,19.56
2023-03-29T23:01:43.033Z,19.17
2023-03-29T23:04:11.800Z,19.40
2023-03-29T23:06:38.572Z,19.33
2023-03-29T23:09:05.378Z,19.35
2023-03-29T23:11:32.099Z,19.34
2023-03-29T23:13:59.006Z,19.22
2023-03-29T23:16:26.594Z,19.14
2023-03-29T23:18:53.508Z,18.98
2023-03-29T23:21:22.085Z,18.81
2023-03-29T23:23:48.892Z,19.02
2023-03-29T23:26:15.914Z,19.14
2023-03-29T23:28:42.895Z,18.98
2023-03-29T23:31:11.926Z,18.95
2023-03-29T23:33:41.027Z,19.17
2023-03-29T23:36:10.236Z,19.04
2023-03-29T23:38:39.272Z,19.13
2023-03-29T23:41:07.803Z,19.30
2023-03-29T23:43:36.804Z,19.30
2023-03-29T23:46:06.298Z,19.40
2023-03-29T23:49:10.762Z,19.31
2023-03-29T23:51:37.574Z,19.18
2023-03-29T23:54:06.247Z,19.31
2023-03-29T23:56:33.137Z,19.37
2023-03-29T23:59:00.221Z,19.50
